Time;durP1;ratioP1;P1;durP2;ratioP2;P2;SDS_P1;SDS_P2;PMS_P1;PMS_P2;Temp;Humidity;BMP_temperature;BMP_pressure;BME280_temperature;BME280_humidity;BME280_pressure;Samples;Min_cycle;Max_cycle;Signal;HPM_P1;HPM_P2
2023/06/12 00:00:52;;;;;;;4.70;3.65;;;;;;;;;;5067709;28;20208;-72
2023/06/12 00:03:19;;;;;;;5.72;3.95;;;;;;;;;;5066472;28;20231;-72
2023/06/12 00:05:44;;;;;;;5.50;3.83;;;;;;;;;;5062817;28;20301;-70
2023/06/12 00:08:11;;;;;;;4.60;3.92;;;;;;;;;;5066858;28;20263;-71
2023/06/12 00:10:37;;;;;;;6.85;3.95;;;;;;;;;;5070413;28;20604;-71
2023/06/12 00:15:34;;;;;;;5.30;3.67;;;;;;;;;;5012851;28;20374;-75
2023/06/12 00:18:00;;;;;;;4.47;3.70;;;;;;;;;;5014615;28;20223;-75
2023/06/12 00:20:27;;;;;;;9.15;4.32;;;;;;;;;;5017516;28;20175;-77
2023/06/12 00:22:52;;;;;;;6.10;4.03;;;;;;;;;;5014427;28;20590;-75
2023/06/12 00:25:17;;;;;;;4.93;3.90;;;;;;;;;;5002582;28;20866;-74
2023/06/12 00:27:42;;;;;;;4.07;3.63;;;;;;;;;;5005668;28;20188;-75
2023/06/12 00:30:08;;;;;;;7.43;3.80;;;;;;;;;;5011299;28;20183;-76
2023/06/12 00:32:33;;;;;;;5.72;4.28;;;;;;;;;;5008759;28;20481;-75
2023/06/12 00:34:58;;;;;;;4.22;3.83;;;;;;;;;;5013292;28;20199;-75
2023/06/12 00:37:27;;;;;;;7.17;4.13;;;;;;;;;;5012390;28;20195;-76
2023/06/12 00:39:52;;;;;;;7.15;3.85;;;;;;;;;;5003410;28;20429;-75
2023/06/12 00:42:18;;;;;;;5.60;3.95;;;;;;;;;;5010874;28;20285;-75
2023/06/12 00:44:43;;;;;;;6.43;4.15;;;;;;;;;;5006205;28;20700;-75
2023/06/12 00:47:09;;;;;;;4.15;3.63;;;;;;;;;;5007879;28;20175;-77
2023/06/12 00:49:34;;;;;;;4.28;3.55;;;;;;;;;;5006863;28;20233;-76
2023/06/12 00:52:00;;;;;;;5.00;4.05;;;;;;;;;;5009274;28;20190;-76
2023/06/12 00:54:25;;;;;;;5.35;4.15;;;;;;;;;;5007696;28;20199;-76
2023/06/12 00:56:50;;;;;;;5.13;4.63;;;;;;;;;;5003068;28;20196;-75
2023/06/12 00:59:16;;;;;;;5.80;4.15;;;;;;;;;;5006449;28;20631;-76
2023/06/12 01:01:42;;;;;;;6.50;3.65;;;;;;;;;;5002093;28;20172;-77
2023/06/12 01:04:09;;;;;;;5.43;4.30;;;;;;;;;;5008417;28;20274;-76
2023/06/12 01:06:39;;;;;;;6.45;4.10;;;;;;;;;;5009994;28;20552;-76
2023/06/12 01:09:23;;;;;;;8.25;4.35;;;;;;;;;;5011701;28;20215;-76
2023/06/12 01:11:48;;;;;;;4.90;4.03;;;;;;;;;;5011935;28;20195;-76
2023/06/12 01:14:15;;;;;;;5.75;4.18;;;;;;;;;;5002050;28;20250;-76
2023/06/12 01:16:40;;;;;;;6.32;4.13;;;;;;;;;;5001220;28;20258;-75
2023/06/12 01:19:06;;;;;;;6.65;3.97;;;;;;;;;;5009550;28;20178;-76
2023/06/12 01:21:32;;;;;;;5.50;4.30;;;;;;;;;;5009871;28;20257;-76
2023/06/12 01:24:15;;;;;;;5.82;3.88;;;;;;;;;;5006987;28;20199;-75
2023/06/12 01:26:59;;;;;;;6.45;3.65;;;;;;;;;;5007213;28;20258;-75
2023/06/12 01:29:24;;;;;;;6.10;4.32;;;;;;;;;;5009520;28;20175;-76
2023/06/12 01:32:07;;;;;;;5.97;3.60;;;;;;;;;;5009476;28;20217;-75
2023/06/12 01:34:33;;;;;;;5.13;4.32;;;;;;;;;;5002386;28;20207;-75
2023/06/12 01:37:15;;;;;;;6.80;4.27;;;;;;;;;;5002662;28;20213;-75
2023/06/12 01:39:43;;;;;;;4.22;3.42;;;;;;;;;;5009738;28;20470;-75
2023/06/12 01:42:08;;;;;;;5.25;3.88;;;;;;;;;;5012850;28;20215;-75
2023/06/12 01:44:33;;;;;;;6.45;4.20;;;;;;;;;;5006657;28;20198;-76
2023/06/12 01:46:59;;;;;;;4.07;3.67;;;;;;;;;;5009888;28;20599;-75
2023/06/12 01:49:24;;;;;;;8.32;4.55;;;;;;;;;;5009807;28;20201;-75
2023/06/12 01:51:49;;;;;;;4.60;3.78;;;;;;;;;;5002697;28;20183;-75
2023/06/12 01:54:15;;;;;;;5.55;4.00;;;;;;;;;;5009055;28;20246;-75
2023/06/12 01:56:42;;;;;;;4.35;3.67;;;;;;;;;;5005763;28;20200;-75
2023/06/12 01:59:08;;;;;;;7.65;4.57;;;;;;;;;;5013124;28;20690;-75
2023/06/12 02:01:33;;;;;;;7.50;4.05;;;;;;;;;;5012533;28;20835;-75
2023/06/12 02:03:58;;;;;;;4.68;4.03;;;;;;;;;;5013608;28;20229;-75
2023/06/12 02:06:23;;;;;;;7.38;4.32;;;;;;;;;;5009493;28;20337;-75
2023/06/12 02:08:50;;;;;;;8.85;4.20;;;;;;;;;;5007288;28;20175;-75
2023/06/12 02:11:15;;;;;;;4.90;3.65;;;;;;;;;;5004600;28;20549;-75
2023/06/12 02:13:41;;;;;;;5.47;3.67;;;;;;;;;;5015253;28;20218;-75
2023/06/12 02:16:07;;;;;;;4.00;3.67;;;;;;;;;;5013132;28;20209;-75
2023/06/12 02:18:33;;;;;;;5.80;3.97;;;;;;;;;;5030531;28;20220;-75
2023/06/12 02:20:58;;;;;;;5.25;4.40;;;;;;;;;;5012046;28;20186;-75
2023/06/12 02:23:23;;;;;;;6.88;4.32;;;;;;;;;;5027521;28;20248;-75
2023/06/12 02:25:49;;;;;;;5.07;4.28;;;;;;;;;;5030296;28;20171;-75
2023/06/12 02:28:14;;;;;;;5.65;4.25;;;;;;;;;;5014178;28;20552;-75
2023/06/12 02:30:39;;;;;;;4.38;3.97;;;;;;;;;;5035821;28;20192;-75
2023/06/12 02:33:09;;;;;;;5.18;3.90;;;;;;;;;;5032670;28;20210;-76
2023/06/12 02:35:34;;;;;;;4.63;3.67;;;;;;;;;;5017675;28;20235;-75
2023/06/12 02:38:00;;;;;;;6.18;4.15;;;;;;;;;;5035365;28;20273;-75
2023/06/12 02:40:25;;;;;;;4.40;4.00;;;;;;;;;;5017311;28;20640;-75
2023/06/12 02:42:50;;;;;;;5.05;4.25;;;;;;;;;;5033695;28;20722;-75
2023/06/12 02:45:15;;;;;;;5.33;4.07;;;;;;;;;;5035464;28;20216;-75
2023/06/12 02:47:40;;;;;;;5.80;4.38;;;;;;;;;;5030203;28;20427;-75
2023/06/12 02:50:06;;;;;;;5.18;3.95;;;;;;;;;;5035703;28;20657;-75
2023/06/12 02:52:31;;;;;;;8.73;4.93;;;;;;;;;;5032780;28;20170;-75
2023/06/12 02:54:56;;;;;;;6.82;4.28;;;;;;;;;;5034401;28;20209;-75
2023/06/12 02:57:21;;;;;;;5.32;3.83;;;;;;;;;;5032913;28;20201;-75
2023/06/12 02:59:46;;;;;;;5.32;3.85;;;;;;;;;;5037035;28;20166;-75
2023/06/12 03:02:12;;;;;;;4.90;3.97;;;;;;;;;;5035663;28;20185;-75
2023/06/12 03:04:38;;;;;;;8.70;3.72;;;;;;;;;;5035173;28;20193;-75
2023/06/12 03:07:05;;;;;;;5.78;5.00;;;;;;;;;;5017090;28;20584;-75
2023/06/12 03:09:32;;;;;;;4.80;4.30;;;;;;;;;;5034958;28;20181;-75
2023/06/12 03:11:57;;;;;;;5.28;4.38;;;;;;;;;;5024057;28;20202;-75
2023/06/12 03:14:24;;;;;;;4.80;3.92;;;;;;;;;;5030772;28;20312;-76
2023/06/12 03:16:49;;;;;;;4.45;3.67;;;;;;;;;;5028419;28;20349;-75
2023/06/12 03:19:15;;;;;;;6.72;4.68;;;;;;;;;;5033708;28;20273;-75
2023/06/12 03:21:40;;;;;;;5.10;4.10;;;;;;;;;;5017818;28;20589;-78
2023/06/12 03:24:05;;;;;;;4.57;3.95;;;;;;;;;;5030728;28;20190;-75
2023/06/12 03:26:33;;;;;;;5.03;4.13;;;;;;;;;;5029476;28;20178;-75
2023/06/12 03:29:00;;;;;;;6.10;4.47;;;;;;;;;;5034846;28;20281;-75
2023/06/12 03:31:26;;;;;;;4.63;3.70;;;;;;;;;;5015600;28;20166;-75
2023/06/12 03:33:52;;;;;;;4.60;3.75;;;;;;;;;;5013683;28;20204;-75
2023/06/12 03:36:17;;;;;;;6.53;4.32;;;;;;;;;;5033544;28;20193;-76
2023/06/12 03:38:42;;;;;;;5.07;4.57;;;;;;;;;;5034281;28;20221;-76
2023/06/12 03:41:08;;;;;;;5.43;3.65;;;;;;;;;;5033024;28;20261;-75
2023/06/12 03:43:33;;;;;;;6.18;3.97;;;;;;;;;;5014405;28;20229;-76
2023/06/12 03:45:58;;;;;;;6.90;3.97;;;;;;;;;;5032475;28;20227;-76
2023/06/12 03:48:23;;;;;;;4.70;3.63;;;;;;;;;;5009933;28;20189;-76
2023/06/12 03:50:48;;;;;;;4.15;3.67;;;;;;;;;;5027172;28;20183;-76
2023/06/12 03:53:14;;;;;;;5.13;4.15;;;;;;;;;;5034229;28;20189;-76
2023/06/12 03:55:39;;;;;;;5.55;3.92;;;;;;;;;;5011817;28;20337;-76
2023/06/12 03:58:04;;;;;;;5.10;4.38;;;;;;;;;;5029068;28;20201;-76
2023/06/12 04:00:29;;;;;;;6.90;3.80;;;;;;;;;;5032759;28;20175;-75
2023/06/12 04:02:55;;;;;;;4.05;3.65;;;;;;;;;;5032410;28;20779;-76
2023/06/12 04:05:20;;;;;;;4.95;4.22;;;;;;;;;;5010244;28;20202;-76
2023/06/12 04:07:46;;;;;;;4.65;4.10;;;;;;;;;;5033653;28;20269;-76
2023/06/12 04:10:11;;;;;;;5.30;4.10;;;;;;;;;;5014641;28;20191;-75
2023/06/12 04:12:36;;;;;;;4.40;3.97;;;;;;;;;;5028452;28;20790;-75
2023/06/12 04:15:02;;;;;;;5.85;4.50;;;;;;;;;;5015724;28;20220;-76
2023/06/12 04:17:28;;;;;;;6.60;4.63;;;;;;;;;;5028097;28;20194;-75
2023/06/12 04:19:55;;;;;;;4.68;4.15;;;;;;;;;;5034804;28;20182;-75
2023/06/12 04:22:20;;;;;;;5.25;4.40;;;;;;;;;;5011149;28;20202;-75
2023/06/12 04:24:47;;;;;;;5.25;3.88;;;;;;;;;;5004365;28;20229;-76
2023/06/12 04:27:13;;;;;;;7.95;4.20;;;;;;;;;;5020595;28;20186;-76
2023/06/12 04:29:40;;;;;;;5.30;4.57;;;;;;;;;;5021695;28;20221;-75
2023/06/12 04:32:06;;;;;;;6.38;4.53;;;;;;;;;;5026836;28;20560;-76
2023/06/12 04:34:32;;;;;;;8.68;4.47;;;;;;;;;;5006800;28;20194;-75
2023/06/12 04:36:57;;;;;;;8.15;4.68;;;;;;;;;;5023891;28;20194;-75
2023/06/12 04:39:23;;;;;;;4.68;4.20;;;;;;;;;;5019696;28;20423;-76
2023/06/12 04:41:51;;;;;;;4.88;3.83;;;;;;;;;;5003996;28;20237;-75
2023/06/12 04:44:17;;;;;;;4.97;3.95;;;;;;;;;;5010596;28;20277;-76
2023/06/12 04:46:42;;;;;;;6.35;4.40;;;;;;;;;;5003758;28;20618;-75
2023/06/12 04:49:08;;;;;;;6.93;4.05;;;;;;;;;;5032394;28;20185;-75
2023/06/12 04:51:35;;;;;;;6.53;4.38;;;;;;;;;;5013279;28;20273;-75
2023/06/12 04:54:01;;;;;;;11.85;4.43;;;;;;;;;;5029861;28;20210;-75
2023/06/12 04:56:27;;;;;;;7.60;4.20;;;;;;;;;;5012559;28;20210;-75
2023/06/12 04:58:53;;;;;;;5.20;4.10;;;;;;;;;;5022758;28;20178;-75
2023/06/12 05:01:19;;;;;;;6.88;4.15;;;;;;;;;;5013702;28;20273;-75
2023/06/12 05:03:45;;;;;;;5.32;4.30;;;;;;;;;;5014102;28;20198;-76
2023/06/12 05:06:10;;;;;;;4.22;3.78;;;;;;;;;;5026059;28;20178;-75
2023/06/12 05:08:37;;;;;;;6.85;3.92;;;;;;;;;;5035351;28;20169;-75
2023/06/12 05:11:03;;;;;;;7.03;4.05;;;;;;;;;;5032204;28;20177;-75
2023/06/12 05:13:28;;;;;;;7.47;4.15;;;;;;;;;;5009990;28;20217;-76
2023/06/12 05:15:53;;;;;;;6.22;4.35;;;;;;;;;;5029193;28;20179;-76
2023/06/12 05:18:18;;;;;;;6.70;4.47;;;;;;;;;;5031005;28;20186;-76
2023/06/12 05:20:44;;;;;;;9.38;5.35;;;;;;;;;;5029190;28;20424;-75
2023/06/12 05:23:09;;;;;;;8.30;5.10;;;;;;;;;;5011199;28;20182;-75
2023/06/12 05:25:34;;;;;;;14.47;5.80;;;;;;;;;;5028070;28;20178;-75
2023/06/12 05:27:59;;;;;;;5.90;4.53;;;;;;;;;;5028503;28;20812;-75
2023/06/12 05:30:24;;;;;;;7.65;4.90;;;;;;;;;;5002936;28;20217;-75
2023/06/12 05:32:50;;;;;;;7.13;4.82;;;;;;;;;;5020781;28;20644;-75
2023/06/12 05:35:15;;;;;;;8.57;5.32;;;;;;;;;;5023658;28;20191;-75
2023/06/12 05:37:40;;;;;;;10.50;5.05;;;;;;;;;;5005828;28;20274;-74
2023/06/12 05:40:08;;;;;;;6.63;4.57;;;;;;;;;;5023641;28;20191;-74
2023/06/12 05:42:34;;;;;;;5.60;4.40;;;;;;;;;;5004025;28;20178;-74
2023/06/12 05:44:59;;;;;;;6.15;4.25;;;;;;;;;;5007694;28;20616;-74
2023/06/12 05:47:24;;;;;;;9.60;4.32;;;;;;;;;;5027477;28;20268;-75
2023/06/12 05:49:49;;;;;;;4.70;3.60;;;;;;;;;;5022913;28;20209;-75
2023/06/12 05:52:15;;;;;;;5.00;3.95;;;;;;;;;;5026071;28;20913;-75
2023/06/12 05:54:41;;;;;;;4.40;3.55;;;;;;;;;;5019758;28;20183;-75
2023/06/12 05:57:06;;;;;;;7.28;4.25;;;;;;;;;;5027441;28;20230;-75
2023/06/12 05:59:31;;;;;;;4.70;3.90;;;;;;;;;;5011127;28;20175;-75
2023/06/12 06:01:56;;;;;;;6.78;3.72;;;;;;;;;;5018486;28;20177;-75
2023/06/12 06:04:22;;;;;;;6.68;4.32;;;;;;;;;;5006228;28;20194;-75
2023/06/12 06:06:47;;;;;;;6.97;3.90;;;;;;;;;;5029772;28;20272;-75
2023/06/12 06:09:13;;;;;;;4.35;3.80;;;;;;;;;;5028889;28;20240;-74
2023/06/12 06:11:39;;;;;;;5.05;3.80;;;;;;;;;;5028940;28;20732;-70
2023/06/12 06:14:04;;;;;;;9.48;4.68;;;;;;;;;;5031362;22;20315;-80
2023/06/12 06:16:29;;;;;;;5.55;4.32;;;;;;;;;;5034754;28;20208;-78
2023/06/12 06:18:55;;;;;;;8.55;4.95;;;;;;;;;;5026199;28;20181;-77
2023/06/12 06:21:20;;;;;;;5.72;4.15;;;;;;;;;;5045147;28;20184;-78
2023/06/12 06:23:45;;;;;;;6.00;3.92;;;;;;;;;;5052652;28;20194;-77
2023/06/12 06:26:10;;;;;;;6.32;3.75;;;;;;;;;;5032170;28;20197;-78
2023/06/12 06:28:36;;;;;;;6.07;3.65;;;;;;;;;;5049413;28;20182;-79
2023/06/12 06:31:03;;;;;;;5.00;4.20;;;;;;;;;;5044461;28;20562;-79
2023/06/12 06:33:28;;;;;;;7.40;3.67;;;;;;;;;;5044478;28;20270;-76
2023/06/12 06:35:55;;;;;;;5.40;4.18;;;;;;;;;;5043196;28;20618;-77
2023/06/12 06:38:22;;;;;;;4.45;4.00;;;;;;;;;;5020861;28;20681;-77
2023/06/12 06:40:47;;;;;;;5.13;4.32;;;;;;;;;;5027201;28;20568;-78
2023/06/12 06:43:12;;;;;;;4.22;3.60;;;;;;;;;;5041640;28;20174;-77
2023/06/12 06:45:38;;;;;;;6.28;4.32;;;;;;;;;;5025122;28;20197;-77
2023/06/12 06:48:04;;;;;;;6.17;3.87;;;;;;;;;;5044052;28;20185;-77
2023/06/12 06:50:29;;;;;;;4.90;4.20;;;;;;;;;;5029064;28;20429;-77
2023/06/12 06:52:54;;;;;;;4.32;3.90;;;;;;;;;;5048638;28;20173;-77
2023/06/12 06:55:19;;;;;;;6.73;4.07;;;;;;;;;;5046133;28;20212;-78
2023/06/12 06:57:45;;;;;;;4.78;4.20;;;;;;;;;;5033199;28;20454;-78
2023/06/12 07:00:11;;;;;;;6.43;4.38;;;;;;;;;;5033066;28;20170;-76
2023/06/12 07:02:38;;;;;;;8.90;4.38;;;;;;;;;;5036245;28;20261;-77
2023/06/12 07:05:04;;;;;;;5.82;4.00;;;;;;;;;;5053379;28;20638;-79
2023/06/12 07:07:29;;;;;;;5.72;4.65;;;;;;;;;;5053243;28;20204;-78
2023/06/12 07:09:54;;;;;;;7.03;4.77;;;;;;;;;;5026960;28;20268;-76
2023/06/12 07:12:19;;;;;;;7.13;4.03;;;;;;;;;;5023007;28;20498;-78
2023/06/12 07:14:45;;;;;;;5.95;4.10;;;;;;;;;;5035561;28;20209;-79
2023/06/12 07:17:10;;;;;;;5.70;4.95;;;;;;;;;;5034205;28;20198;-78
2023/06/12 07:19:35;;;;;;;5.70;4.37;;;;;;;;;;5059151;28;20174;-79
2023/06/12 07:22:00;;;;;;;7.45;4.50;;;;;;;;;;5038918;28;20796;-78
2023/06/12 07:24:25;;;;;;;7.25;4.20;;;;;;;;;;5051207;28;20193;-78
2023/06/12 07:26:52;;;;;;;4.87;4.27;;;;;;;;;;5045201;28;20578;-78
2023/06/12 07:29:17;;;;;;;6.07;4.55;;;;;;;;;;5050945;28;20774;-78
2023/06/12 07:31:42;;;;;;;6.23;4.03;;;;;;;;;;5053906;28;20183;-79
2023/06/12 07:34:07;;;;;;;4.93;3.97;;;;;;;;;;5053384;28;20541;-79
2023/06/12 07:36:35;;;;;;;5.30;4.37;;;;;;;;;;5044724;28;20508;-78
2023/06/12 07:39:01;;;;;;;6.00;3.90;;;;;;;;;;5051005;28;20896;-78
2023/06/12 07:41:26;;;;;;;7.82;4.05;;;;;;;;;;5029060;28;20185;-79
2023/06/12 07:43:51;;;;;;;5.70;3.87;;;;;;;;;;5035980;28;20202;-77
2023/06/12 07:46:16;;;;;;;6.37;4.30;;;;;;;;;;5039581;28;20418;-77
2023/06/12 07:48:42;;;;;;;5.22;4.22;;;;;;;;;;5062106;28;20445;-77
2023/06/12 07:51:07;;;;;;;5.53;4.43;;;;;;;;;;5060393;28;20182;-77
2023/06/12 07:53:32;;;;;;;5.53;3.87;;;;;;;;;;5059978;28;20182;-77
2023/06/12 07:55:57;;;;;;;7.55;4.28;;;;;;;;;;5050790;28;20776;-79
2023/06/12 07:58:23;;;;;;;5.40;4.73;;;;;;;;;;5041447;28;20221;-79
2023/06/12 08:00:55;;;;;;;8.02;4.50;;;;;;;;;;5040230;28;20493;-79
2023/06/12 08:03:24;;;;;;;6.47;4.32;;;;;;;;;;5041770;28;20170;-78
2023/06/12 08:05:49;;;;;;;6.93;4.22;;;;;;;;;;5047977;28;20170;-77
2023/06/12 08:08:15;;;;;;;6.55;4.28;;;;;;;;;;5043036;28;20272;-78
2023/06/12 08:10:40;;;;;;;6.93;4.53;;;;;;;;;;5045510;28;20608;-77
2023/06/12 08:13:05;;;;;;;9.63;4.93;;;;;;;;;;5043418;28;20439;-79
2023/06/12 08:15:30;;;;;;;5.20;4.20;;;;;;;;;;5033215;28;20450;-79
2023/06/12 08:17:56;;;;;;;5.33;4.30;;;;;;;;;;5051260;28;20542;-78
2023/06/12 08:20:21;;;;;;;6.30;4.47;;;;;;;;;;5046457;28;20512;-77
2023/06/12 08:22:47;;;;;;;5.93;4.35;;;;;;;;;;5051624;28;20257;-78
2023/06/12 08:25:13;;;;;;;7.38;4.25;;;;;;;;;;5052894;28;20200;-77
2023/06/12 08:27:38;;;;;;;4.07;3.67;;;;;;;;;;5034679;28;20250;-76
2023/06/12 08:30:04;;;;;;;6.47;4.60;;;;;;;;;;5053464;28;20182;-77
2023/06/12 08:32:30;;;;;;;8.30;4.13;;;;;;;;;;5044710;28;20456;-80
2023/06/12 08:34:55;;;;;;;4.40;3.80;;;;;;;;;;5035747;28;20580;-79
2023/06/12 08:37:21;;;;;;;4.28;3.55;;;;;;;;;;5053510;28;20202;-79
2023/06/12 08:39:46;;;;;;;6.10;4.53;;;;;;;;;;5048106;28;20177;-80
2023/06/12 08:42:15;;;;;;;4.00;3.60;;;;;;;;;;5030432;28;20560;-78
2023/06/12 08:44:43;;;;;;;7.75;4.03;;;;;;;;;;5046755;28;20200;-78
2023/06/12 08:47:08;;;;;;;6.45;3.92;;;;;;;;;;5056306;28;20186;-79
2023/06/12 08:49:33;;;;;;;4.70;3.78;;;;;;;;;;5054825;28;20181;-78
2023/06/12 08:52:00;;;;;;;4.03;3.63;;;;;;;;;;5050339;28;20194;-79
2023/06/12 08:54:26;;;;;;;6.95;3.83;;;;;;;;;;5026954;28;20523;-79
2023/06/12 08:56:53;;;;;;;5.60;4.05;;;;;;;;;;5033494;28;20660;-79
2023/06/12 08:59:18;;;;;;;5.43;3.78;;;;;;;;;;5054448;28;20173;-79
2023/06/12 09:01:50;;;;;;;5.27;4.30;;;;;;;;;;5052446;28;21427;-79
2023/06/12 09:04:26;;;;;;;3.90;3.55;;;;;;;;;;5057195;28;20458;-78
2023/06/12 09:06:53;;;;;;;4.80;4.07;;;;;;;;;;5050994;28;20185;-80
2023/06/12 09:09:18;;;;;;;5.32;3.63;;;;;;;;;;5051034;28;20220;-79
2023/06/12 09:11:44;;;;;;;5.35;3.30;;;;;;;;;;5051669;28;20177;-79
2023/06/12 09:14:09;;;;;;;4.60;3.88;;;;;;;;;;5046797;28;20224;-78
2023/06/12 09:16:34;;;;;;;5.87;4.17;;;;;;;;;;5051843;28;20685;-79
2023/06/12 09:18:59;;;;;;;3.63;3.03;;;;;;;;;;5052548;28;20466;-79
2023/06/12 09:21:25;;;;;;;7.82;3.70;;;;;;;;;;5047115;28;20203;-79
2023/06/12 09:23:51;;;;;;;6.47;3.72;;;;;;;;;;5027491;28;20197;-79
2023/06/12 09:26:18;;;;;;;4.22;3.55;;;;;;;;;;5033162;28;20248;-78
2023/06/12 09:28:43;;;;;;;4.07;3.30;;;;;;;;;;5025963;28;20599;-78
2023/06/12 09:31:09;;;;;;;4.47;3.85;;;;;;;;;;5033964;28;20256;-77
2023/06/12 09:33:39;;;;;;;4.32;3.00;;;;;;;;;;5044145;28;20266;-77
2023/06/12 09:36:04;;;;;;;5.05;3.30;;;;;;;;;;5024580;28;20310;-79
2023/06/12 09:38:30;;;;;;;4.05;2.92;;;;;;;;;;5036361;28;20196;-78
2023/06/12 09:40:57;;;;;;;4.07;3.42;;;;;;;;;;5037079;28;20180;-77
2023/06/12 09:43:23;;;;;;;4.45;3.72;;;;;;;;;;5030850;28;20180;-77
2023/06/12 09:45:49;;;;;;;4.25;3.03;;;;;;;;;;5031702;28;20178;-78
2023/06/12 09:48:14;;;;;;;4.50;3.88;;;;;;;;;;5053783;28;20204;-76
2023/06/12 09:50:40;;;;;;;5.03;3.50;;;;;;;;;;5048859;28;20177;-78
2023/06/12 09:53:05;;;;;;;7.82;3.78;;;;;;;;;;5038200;28;20407;-77
2023/06/12 09:55:31;;;;;;;3.97;2.85;;;;;;;;;;5035847;28;20603;-76
2023/06/12 09:57:57;;;;;;;7.55;3.97;;;;;;;;;;5048537;28;20204;-78
2023/06/12 10:00:23;;;;;;;3.97;3.63;;;;;;;;;;5052478;28;20177;-77
2023/06/12 10:02:53;;;;;;;4.50;3.65;;;;;;;;;;5036566;28;20256;-79
2023/06/12 10:05:25;;;;;;;4.45;3.42;;;;;;;;;;5056116;28;20197;-79
2023/06/12 10:07:53;;;;;;;4.65;3.50;;;;;;;;;;5055328;28;20181;-79
2023/06/12 10:10:19;;;;;;;4.55;3.85;;;;;;;;;;5031504;28;20212;-78
2023/06/12 10:12:45;;;;;;;4.65;3.60;;;;;;;;;;5054704;28;20232;-79
2023/06/12 10:15:11;;;;;;;7.80;3.65;;;;;;;;;;5040873;28;20219;-78
2023/06/12 10:17:37;;;;;;;4.70;3.28;;;;;;;;;;5054154;28;20287;-78
2023/06/12 10:20:03;;;;;;;6.25;3.38;;;;;;;;;;5029415;28;20200;-79
2023/06/12 10:22:28;;;;;;;5.53;3.70;;;;;;;;;;5050984;28;20168;-78
2023/06/12 10:24:55;;;;;;;4.07;3.78;;;;;;;;;;5028426;28;20208;-79
2023/06/12 10:27:20;;;;;;;5.03;3.95;;;;;;;;;;5049324;28;20177;-78
2023/06/12 10:29:53;;;;;;;7.45;3.70;;;;;;;;;;5049959;28;20321;-79
2023/06/12 10:32:20;;;;;;;3.83;3.30;;;;;;;;;;5036243;28;20650;-78
2023/06/12 10:34:45;;;;;;;5.65;3.40;;;;;;;;;;5055667;28;20551;-79
2023/06/12 10:37:21;;;;;;;4.22;3.03;;;;;;;;;;5038256;28;20254;-79
2023/06/12 10:39:47;;;;;;;5.13;3.35;;;;;;;;;;5028498;28;20552;-78
2023/06/12 10:42:12;;;;;;;5.10;3.83;;;;;;;;;;5052713;28;20179;-79
2023/06/12 10:44:38;;;;;;;5.13;3.70;;;;;;;;;;5055730;28;20576;-78
2023/06/12 10:47:04;;;;;;;5.40;3.67;;;;;;;;;;5038400;28;20851;-78
2023/06/12 10:49:30;;;;;;;7.82;3.90;;;;;;;;;;5042003;28;20235;-78
2023/06/12 10:51:57;;;;;;;4.65;3.30;;;;;;;;;;5044826;28;20180;-78
2023/06/12 10:54:26;;;;;;;3.42;3.10;;;;;;;;;;5061309;28;20196;-77
2023/06/12 10:57:01;;;;;;;3.70;3.25;;;;;;;;;;5061945;28;20200;-78
2023/06/12 10:59:30;;;;;;;6.38;3.88;;;;;;;;;;5043411;28;20173;-78
2023/06/12 11:01:55;;;;;;;4.57;3.33;;;;;;;;;;5058392;28;20176;-78
2023/06/12 11:04:21;;;;;;;5.35;3.28;;;;;;;;;;5064849;28;20197;-79
2023/06/12 11:06:47;;;;;;;4.28;3.67;;;;;;;;;;5066689;28;20620;-78
2023/06/12 11:09:12;;;;;;;4.32;2.90;;;;;;;;;;5065963;28;20215;-77
2023/06/12 11:11:40;;;;;;;5.10;3.30;;;;;;;;;;5062848;28;20168;-78
2023/06/12 11:14:05;;;;;;;4.18;3.42;;;;;;;;;;5040459;28;20237;-78
2023/06/12 11:16:39;;;;;;;5.07;3.33;;;;;;;;;;5047515;28;20204;-78
2023/06/12 11:19:05;;;;;;;5.88;3.40;;;;;;;;;;5046816;28;20417;-77
2023/06/12 11:21:32;;;;;;;3.30;3.00;;;;;;;;;;5049315;28;20188;-78
2023/06/12 11:24:03;;;;;;;4.05;3.40;;;;;;;;;;5058683;28;20197;-77
2023/06/12 11:26:31;;;;;;;3.70;2.83;;;;;;;;;;5066337;28;20651;-77
2023/06/12 11:28:56;;;;;;;5.63;3.60;;;;;;;;;;5049765;28;20546;-79
2023/06/12 11:31:22;;;;;;;6.60;3.77;;;;;;;;;;5036096;28;20177;-78
2023/06/12 11:33:48;;;;;;;3.53;3.22;;;;;;;;;;5031002;28;20430;-79
2023/06/12 11:36:13;;;;;;;5.07;3.83;;;;;;;;;;5055923;28;20184;-79
2023/06/12 11:38:38;;;;;;;3.13;2.53;;;;;;;;;;5047883;28;20431;-79
2023/06/12 11:41:03;;;;;;;5.97;3.30;;;;;;;;;;5055441;28;20425;-79
2023/06/12 11:43:29;;;;;;;4.82;3.53;;;;;;;;;;5040134;28;20208;-78
2023/06/12 11:45:55;;;;;;;2.60;2.40;;;;;;;;;;5051446;28;20626;-78
2023/06/12 11:48:21;;;;;;;3.38;2.97;;;;;;;;;;5039985;28;20177;-79
2023/06/12 11:50:47;;;;;;;3.92;2.90;;;;;;;;;;5050620;28;20203;-79
2023/06/12 11:53:13;;;;;;;5.35;3.30;;;;;;;;;;5036884;28;20181;-79
2023/06/12 11:55:38;;;;;;;4.78;3.20;;;;;;;;;;5053732;28;20197;-79
2023/06/12 11:58:04;;;;;;;3.67;3.03;;;;;;;;;;5035839;28;20203;-79
2023/06/12 12:00:32;;;;;;;4.28;3.65;;;;;;;;;;5041939;28;20161;-79
2023/06/12 12:02:58;;;;;;;3.65;3.22;;;;;;;;;;5043877;28;20165;-79
2023/06/12 12:05:24;;;;;;;5.68;3.97;;;;;;;;;;5059528;28;20281;-79
2023/06/12 12:07:55;;;;;;;4.45;3.60;;;;;;;;;;5060309;28;20250;-79
2023/06/12 12:10:21;;;;;;;4.45;3.40;;;;;;;;;;5057271;28;20177;-79
2023/06/12 12:12:50;;;;;;;4.28;3.28;;;;;;;;;;5036074;28;20200;-78
2023/06/12 12:15:16;;;;;;;3.75;3.35;;;;;;;;;;5058243;28;20212;-78
2023/06/12 12:17:42;;;;;;;5.25;3.28;;;;;;;;;;5058396;28;20598;-79
2023/06/12 12:20:15;;;;;;;4.63;3.28;;;;;;;;;;5052941;28;20566;-79
2023/06/12 12:22:41;;;;;;;4.18;2.95;;;;;;;;;;5049800;28;20187;-79
2023/06/12 12:25:15;;;;;;;6.32;3.92;;;;;;;;;;5040478;28;20212;-79
2023/06/12 12:27:40;;;;;;;4.85;3.05;;;;;;;;;;5038669;28;20177;-79
2023/06/12 12:30:05;;;;;;;3.97;3.60;;;;;;;;;;5035703;28;20617;-79
2023/06/12 12:32:31;;;;;;;4.82;2.83;;;;;;;;;;5054326;28;20212;-78
2023/06/12 12:34:57;;;;;;;3.92;3.45;;;;;;;;;;5058889;28;20594;-78
2023/06/12 12:37:22;;;;;;;3.67;3.00;;;;;;;;;;5044360;28;20280;-79
2023/06/12 12:39:47;;;;;;;6.10;3.50;;;;;;;;;;5052163;28;20178;-78
2023/06/12 12:42:13;;;;;;;3.73;2.97;;;;;;;;;;5039093;28;20173;-78
2023/06/12 12:44:38;;;;;;;3.47;3.10;;;;;;;;;;5052388;28;20425;-78
2023/06/12 12:47:03;;;;;;;4.53;3.00;;;;;;;;;;5059390;28;20627;-78
2023/06/12 12:49:28;;;;;;;3.67;2.88;;;;;;;;;;5050001;28;20193;-79
2023/06/12 12:51:53;;;;;;;6.40;3.70;;;;;;;;;;5060315;28;20573;-78
2023/06/12 12:54:19;;;;;;;4.60;3.23;;;;;;;;;;5053372;28;20271;-79
2023/06/12 12:56:45;;;;;;;3.95;2.70;;;;;;;;;;5054403;28;20197;-79
2023/06/12 12:59:10;;;;;;;3.92;3.53;;;;;;;;;;5040107;28;20169;-78
2023/06/12 13:01:35;;;;;;;3.33;3.00;;;;;;;;;;5033759;28;20190;-79
2023/06/12 13:04:01;;;;;;;6.25;3.38;;;;;;;;;;5033324;28;20461;-78
2023/06/12 13:06:27;;;;;;;4.45;3.50;;;;;;;;;;5054976;28;20677;-79
2023/06/12 13:08:52;;;;;;;5.45;3.47;;;;;;;;;;5054108;28;20264;-78
2023/06/12 13:11:17;;;;;;;6.93;3.63;;;;;;;;;;5036679;28;20181;-77
2023/06/12 13:13:43;;;;;;;3.57;3.27;;;;;;;;;;5043731;28;20202;-76
2023/06/12 13:16:08;;;;;;;5.47;3.53;;;;;;;;;;5048164;28;20418;-77
2023/06/12 13:18:34;;;;;;;6.13;3.72;;;;;;;;;;5057123;28;20461;-76
2023/06/12 13:21:01;;;;;;;3.92;3.33;;;;;;;;;;5055731;28;20169;-76
2023/06/12 13:23:26;;;;;;;4.82;3.97;;;;;;;;;;5061785;28;20173;-78
2023/06/12 13:25:52;;;;;;;5.37;4.13;;;;;;;;;;5036971;28;20176;-77
2023/06/12 13:28:17;;;;;;;3.72;3.42;;;;;;;;;;5043581;28;20998;-77
2023/06/12 13:30:43;;;;;;;6.00;3.77;;;;;;;;;;5061935;28;20650;-78
2023/06/12 13:33:08;;;;;;;5.22;3.83;;;;;;;;;;5041377;28;20671;-77
2023/06/12 13:35:33;;;;;;;5.00;3.23;;;;;;;;;;5034933;28;20728;-78
2023/06/12 13:37:59;;;;;;;4.22;3.28;;;;;;;;;;5034468;28;20850;-78
2023/06/12 13:40:24;;;;;;;4.00;3.45;;;;;;;;;;5057210;28;20181;-76
2023/06/12 13:42:50;;;;;;;3.40;2.90;;;;;;;;;;5058355;28;20265;-78
2023/06/12 13:45:15;;;;;;;4.13;3.38;;;;;;;;;;5060530;28;20193;-79
2023/06/12 13:47:40;;;;;;;4.25;3.53;;;;;;;;;;5057760;28;20180;-78
2023/06/12 13:50:10;;;;;;;4.87;3.60;;;;;;;;;;5039188;28;20177;-79
2023/06/12 13:52:36;;;;;;;3.50;3.20;;;;;;;;;;5044714;28;20172;-80
2023/06/12 13:55:01;;;;;;;4.65;3.83;;;;;;;;;;5060803;28;20686;-78
2023/06/12 13:57:27;;;;;;;4.82;3.55;;;;;;;;;;5040713;28;20205;-78
2023/06/12 13:59:52;;;;;;;4.07;3.70;;;;;;;;;;5042861;28;20177;-78
2023/06/12 14:02:17;;;;;;;4.97;3.50;;;;;;;;;;5042969;28;20188;-77
2023/06/12 14:04:42;;;;;;;3.90;3.53;;;;;;;;;;5039612;28;20681;-79
2023/06/12 14:07:08;;;;;;;3.43;2.90;;;;;;;;;;5050187;28;20180;-78
2023/06/12 14:09:33;;;;;;;4.82;3.53;;;;;;;;;;5048319;28;20177;-78
2023/06/12 14:11:59;;;;;;;4.75;3.72;;;;;;;;;;5033568;28;20191;-78
2023/06/12 14:14:24;;;;;;;4.00;3.60;;;;;;;;;;5056948;28;20216;-78
2023/06/12 14:16:49;;;;;;;4.03;3.70;;;;;;;;;;5038002;28;20445;-79
2023/06/12 14:19:15;;;;;;;4.37;3.20;;;;;;;;;;5044295;28;20616;-79
2023/06/12 14:21:40;;;;;;;4.70;4.27;;;;;;;;;;5051059;28;20434;-77
2023/06/12 14:24:05;;;;;;;4.07;3.67;;;;;;;;;;5039452;28;20434;-78
2023/06/12 14:26:31;;;;;;;4.07;3.65;;;;;;;;;;5043380;28;20177;-78
2023/06/12 14:28:56;;;;;;;4.43;4.03;;;;;;;;;;5057663;28;20169;-77
2023/06/12 14:31:22;;;;;;;6.32;3.45;;;;;;;;;;5063359;28;20197;-79
2023/06/12 14:33:47;;;;;;;5.32;3.72;;;;;;;;;;5056150;28;20221;-79
2023/06/12 14:36:12;;;;;;;3.77;3.47;;;;;;;;;;5059779;28;20196;-79
2023/06/12 14:38:38;;;;;;;3.50;2.80;;;;;;;;;;5058622;28;20197;-78